sensor_id;sensor_type;location;lat;lon;timestamp;temperature;humidity
4399;DHT22;2213;49.720;7.296;2024-01-07T00:00:16;4.00;99.90
4399;DHT22;2213;49.720;7.296;2024-01-07T00:02:46;4.00;99.90
4399;DHT22;2213;49.720;7.296;2024-01-07T00:05:14;4.10;99.90
4399;DHT22;2213;49.720;7.296;2024-01-07T00:07:43;4.10;99.90
4399;DHT22;2213;49.720;7.296;2024-01-07T00:10:11;4.00;99.90
4399;DHT22;2213;49.720;7.296;2024-01-07T00:12:40;4.00;99.90
4399;DHT22;2213;49.720;7.296;2024-01-07T00:15:09;3.90;99.90
4399;DHT22;2213;49.720;7.296;2024-01-07T00:17:38;4.00;99.90
4399;DHT22;2213;49.720;7.296;2024-01-07T00:20:09;4.00;99.90
4399;DHT22;2213;49.720;7.296;2024-01-07T00:22:38;3.90;99.90
4399;DHT22;2213;49.720;7.296;2024-01-07T00:25:07;3.90;99.90
4399;DHT22;2213;49.720;7.296;2024-01-07T00:27:36;3.80;99.90
4399;DHT22;2213;49.720;7.296;2024-01-07T00:30:05;3.80;99.90
4399;DHT22;2213;49.720;7.296;2024-01-07T00:32:35;3.80;99.90
4399;DHT22;2213;49.720;7.296;2024-01-07T00:35:04;3.90;99.90
4399;DHT22;2213;49.720;7.296;2024-01-07T00:37:34;3.90;99.90
4399;DHT22;2213;49.720;7.296;2024-01-07T00:40:03;3.80;99.90
4399;DHT22;2213;49.720;7.296;2024-01-07T00:42:32;3.50;99.90
4399;DHT22;2213;49.720;7.296;2024-01-07T00:45:01;3.50;99.90
4399;DHT22;2213;49.720;7.296;2024-01-07T00:47:29;3.40;99.90
4399;DHT22;2213;49.720;7.296;2024-01-07T00:49:58;3.60;99.90
4399;DHT22;2213;49.720;7.296;2024-01-07T00:52:26;3.60;99.90
4399;DHT22;2213;49.720;7.296;2024-01-07T00:54:56;3.70;99.90
4399;DHT22;2213;49.720;7.296;2024-01-07T00:57:25;3.60;99.90
4399;DHT22;2213;49.720;7.296;2024-01-07T00:59:53;3.70;99.90
4399;DHT22;2213;49.720;7.296;2024-01-07T01:02:22;3.70;99.90
4399;DHT22;2213;49.720;7.296;2024-01-07T01:04:50;3.70;99.90
4399;DHT22;2213;49.720;7.296;2024-01-07T01:07:19;3.70;99.90
4399;DHT22;2213;49.720;7.296;2024-01-07T01:09:48;3.70;99.90
4399;DHT22;2213;49.720;7.296;2024-01-07T01:12:17;3.80;99.90
4399;DHT22;2213;49.720;7.296;2024-01-07T01:14:46;3.70;99.90
4399;DHT22;2213;49.720;7.296;2024-01-07T01:17:14;3.60;99.90
4399;DHT22;2213;49.720;7.296;2024-01-07T01:19:43;3.60;99.90
4399;DHT22;2213;49.720;7.296;2024-01-07T01:22:11;3.60;99.90
4399;DHT22;2213;49.720;7.296;2024-01-07T01:24:40;3.50;99.90
4399;DHT22;2213;49.720;7.296;2024-01-07T01:27:10;3.50;99.90
4399;DHT22;2213;49.720;7.296;2024-01-07T01:29:40;3.50;99.90
4399;DHT22;2213;49.720;7.296;2024-01-07T01:32:08;3.50;99.90
4399;DHT22;2213;49.720;7.296;2024-01-07T01:34:37;3.50;99.90
4399;DHT22;2213;49.720;7.296;2024-01-07T01:37:08;3.50;99.90
4399;DHT22;2213;49.720;7.296;2024-01-07T01:39:39;3.40;99.90
4399;DHT22;2213;49.720;7.296;2024-01-07T01:42:08;3.50;99.90
4399;DHT22;2213;49.720;7.296;2024-01-07T01:44:37;3.40;99.90
4399;DHT22;2213;49.720;7.296;2024-01-07T01:47:07;3.50;99.90
4399;DHT22;2213;49.720;7.296;2024-01-07T01:49:36;3.50;99.90
4399;DHT22;2213;49.720;7.296;2024-01-07T01:52:05;3.30;99.90
4399;DHT22;2213;49.720;7.296;2024-01-07T01:54:34;3.40;99.90
4399;DHT22;2213;49.720;7.296;2024-01-07T01:57:04;3.40;99.90
4399;DHT22;2213;49.720;7.296;2024-01-07T01:59:34;3.40;99.90
4399;DHT22;2213;49.720;7.296;2024-01-07T02:02:02;3.30;99.90
4399;DHT22;2213;49.720;7.296;2024-01-07T02:04:33;3.40;99.90
4399;DHT22;2213;49.720;7.296;2024-01-07T02:07:02;3.30;99.90
4399;DHT22;2213;49.720;7.296;2024-01-07T02:09:31;3.30;99.90
4399;DHT22;2213;49.720;7.296;2024-01-07T02:12:03;3.30;99.90
4399;DHT22;2213;49.720;7.296;2024-01-07T02:14:32;3.20;99.90
4399;DHT22;2213;49.720;7.296;2024-01-07T02:17:01;3.30;99.90
4399;DHT22;2213;49.720;7.296;2024-01-07T02:19:29;3.30;99.90
4399;DHT22;2213;49.720;7.296;2024-01-07T02:21:59;3.30;99.90
4399;DHT22;2213;49.720;7.296;2024-01-07T02:24:29;3.30;99.90
4399;DHT22;2213;49.720;7.296;2024-01-07T02:26:59;3.40;99.90
4399;DHT22;2213;49.720;7.296;2024-01-07T02:29:29;3.40;99.90
4399;DHT22;2213;49.720;7.296;2024-01-07T02:31:57;3.40;99.90
4399;DHT22;2213;49.720;7.296;2024-01-07T02:34:26;3.40;99.90
4399;DHT22;2213;49.720;7.296;2024-01-07T02:36:54;3.40;99.90
4399;DHT22;2213;49.720;7.296;2024-01-07T02:39:23;3.40;99.90
4399;DHT22;2213;49.720;7.296;2024-01-07T02:41:53;3.50;99.90
4399;DHT22;2213;49.720;7.296;2024-01-07T02:44:21;3.50;99.90
4399;DHT22;2213;49.720;7.296;2024-01-07T02:46:50;3.40;99.90
4399;DHT22;2213;49.720;7.296;2024-01-07T02:49:18;3.40;99.90
4399;DHT22;2213;49.720;7.296;2024-01-07T02:51:47;3.40;99.90
4399;DHT22;2213;49.720;7.296;2024-01-07T02:54:16;3.40;99.90
4399;DHT22;2213;49.720;7.296;2024-01-07T02:56:45;3.40;99.90
4399;DHT22;2213;49.720;7.296;2024-01-07T02:59:15;3.40;99.90
4399;DHT22;2213;49.720;7.296;2024-01-07T03:01:44;3.40;99.90
4399;DHT22;2213;49.720;7.296;2024-01-07T03:04:15;3.30;99.90
4399;DHT22;2213;49.720;7.296;2024-01-07T03:06:44;3.30;99.90
4399;DHT22;2213;49.720;7.296;2024-01-07T03:09:13;3.30;99.90
4399;DHT22;2213;49.720;7.296;2024-01-07T03:11:41;3.30;99.90
4399;DHT22;2213;49.720;7.296;2024-01-07T03:14:10;3.30;99.90
4399;DHT22;2213;49.720;7.296;2024-01-07T03:16:40;3.30;99.90
4399;DHT22;2213;49.720;7.296;2024-01-07T03:19:09;3.30;99.90
4399;DHT22;2213;49.720;7.296;2024-01-07T03:21:37;3.20;99.90
4399;DHT22;2213;49.720;7.296;2024-01-07T03:24:06;3.40;99.90
4399;DHT22;2213;49.720;7.296;2024-01-07T03:26:35;3.30;99.90
4399;DHT22;2213;49.720;7.296;2024-01-07T03:29:03;3.30;99.90
4399;DHT22;2213;49.720;7.296;2024-01-07T03:31:32;3.40;99.90
4399;DHT22;2213;49.720;7.296;2024-01-07T03:34:02;3.40;99.90
4399;DHT22;2213;49.720;7.296;2024-01-07T03:36:30;3.50;99.90
4399;DHT22;2213;49.720;7.296;2024-01-07T03:38:59;3.50;99.90
4399;DHT22;2213;49.720;7.296;2024-01-07T03:41:27;3.50;99.90
4399;DHT22;2213;49.720;7.296;2024-01-07T03:43:56;3.50;99.90
4399;DHT22;2213;49.720;7.296;2024-01-07T03:46:25;3.50;99.90
4399;DHT22;2213;49.720;7.296;2024-01-07T03:48:53;3.40;99.90
4399;DHT22;2213;49.720;7.296;2024-01-07T03:51:23;3.40;99.90
4399;DHT22;2213;49.720;7.296;2024-01-07T03:53:53;3.50;99.90
4399;DHT22;2213;49.720;7.296;2024-01-07T03:56:21;3.50;99.90
4399;DHT22;2213;49.720;7.296;2024-01-07T03:58:49;3.50;99.90
4399;DHT22;2213;49.720;7.296;2024-01-07T04:01:18;3.40;99.90
4399;DHT22;2213;49.720;7.296;2024-01-07T04:03:47;3.40;99.90
4399;DHT22;2213;49.720;7.296;2024-01-07T04:06:15;3.30;99.90
4399;DHT22;2213;49.720;7.296;2024-01-07T04:08:46;3.30;99.90
4399;DHT22;2213;49.720;7.296;2024-01-07T04:11:14;3.30;99.90
4399;DHT22;2213;49.720;7.296;2024-01-07T04:13:42;3.40;99.90
4399;DHT22;2213;49.720;7.296;2024-01-07T04:16:17;3.20;99.90
4399;DHT22;2213;49.720;7.296;2024-01-07T04:18:46;3.30;99.90
4399;DHT22;2213;49.720;7.296;2024-01-07T04:21:20;3.40;99.90
4399;DHT22;2213;49.720;7.296;2024-01-07T04:23:50;3.30;99.90
4399;DHT22;2213;49.720;7.296;2024-01-07T04:26:18;3.30;99.90
4399;DHT22;2213;49.720;7.296;2024-01-07T04:28:47;3.30;99.90
4399;DHT22;2213;49.720;7.296;2024-01-07T04:31:15;3.30;99.90
4399;DHT22;2213;49.720;7.296;2024-01-07T04:33:44;3.20;99.90
4399;DHT22;2213;49.720;7.296;2024-01-07T04:36:13;3.20;99.90
4399;DHT22;2213;49.720;7.296;2024-01-07T04:38:41;3.20;99.90
4399;DHT22;2213;49.720;7.296;2024-01-07T04:41:11;3.10;99.90
4399;DHT22;2213;49.720;7.296;2024-01-07T04:43:40;3.20;99.90
4399;DHT22;2213;49.720;7.296;2024-01-07T04:46:11;3.20;99.90
4399;DHT22;2213;49.720;7.296;2024-01-07T04:48:39;3.20;99.90
4399;DHT22;2213;49.720;7.296;2024-01-07T04:51:08;3.10;99.90
4399;DHT22;2213;49.720;7.296;2024-01-07T04:53:36;3.10;99.90
4399;DHT22;2213;49.720;7.296;2024-01-07T04:56:05;3.10;99.90
4399;DHT22;2213;49.720;7.296;2024-01-07T04:58:35;3.10;99.90
4399;DHT22;2213;49.720;7.296;2024-01-07T05:01:04;3.10;99.90
4399;DHT22;2213;49.720;7.296;2024-01-07T05:03:33;3.10;99.90
4399;DHT22;2213;49.720;7.296;2024-01-07T05:06:03;3.20;99.90
4399;DHT22;2213;49.720;7.296;2024-01-07T05:08:31;3.10;99.90
4399;DHT22;2213;49.720;7.296;2024-01-07T05:11:00;3.00;99.90
4399;DHT22;2213;49.720;7.296;2024-01-07T05:13:28;3.10;99.90
4399;DHT22;2213;49.720;7.296;2024-01-07T05:15:58;3.10;99.90
4399;DHT22;2213;49.720;7.296;2024-01-07T05:18:27;3.10;99.90
4399;DHT22;2213;49.720;7.296;2024-01-07T05:20:55;3.20;99.90
4399;DHT22;2213;49.720;7.296;2024-01-07T05:23:24;3.00;99.90
4399;DHT22;2213;49.720;7.296;2024-01-07T05:25:52;3.10;99.90
4399;DHT22;2213;49.720;7.296;2024-01-07T05:28:21;3.00;99.90
4399;DHT22;2213;49.720;7.296;2024-01-07T05:30:49;3.00;99.90
4399;DHT22;2213;49.720;7.296;2024-01-07T05:33:19;3.10;99.90
4399;DHT22;2213;49.720;7.296;2024-01-07T05:35:48;3.10;99.90
4399;DHT22;2213;49.720;7.296;2024-01-07T05:38:16;3.10;99.90
4399;DHT22;2213;49.720;7.296;2024-01-07T05:40:45;3.10;99.90
4399;DHT22;2213;49.720;7.296;2024-01-07T05:43:13;3.00;99.90
4399;DHT22;2213;49.720;7.296;2024-01-07T05:45:42;3.10;99.90
4399;DHT22;2213;49.720;7.296;2024-01-07T05:48:10;3.20;99.90
4399;DHT22;2213;49.720;7.296;2024-01-07T05:50:40;3.20;99.90
4399;DHT22;2213;49.720;7.296;2024-01-07T05:53:09;3.20;99.90
4399;DHT22;2213;49.720;7.296;2024-01-07T05:55:37;3.20;99.90
4399;DHT22;2213;49.720;7.296;2024-01-07T05:58:06;3.20;99.90
4399;DHT22;2213;49.720;7.296;2024-01-07T06:00:34;3.10;99.90
4399;DHT22;2213;49.720;7.296;2024-01-07T06:03:03;3.10;99.90
4399;DHT22;2213;49.720;7.296;2024-01-07T06:05:32;3.00;99.90
4399;DHT22;2213;49.720;7.296;2024-01-07T06:08:01;3.00;99.90
4399;DHT22;2213;49.720;7.296;2024-01-07T06:10:30;3.00;99.90
4399;DHT22;2213;49.720;7.296;2024-01-07T06:12:59;3.00;99.90
4399;DHT22;2213;49.720;7.296;2024-01-07T06:15:27;3.10;99.90
4399;DHT22;2213;49.720;7.296;2024-01-07T06:17:56;3.10;99.90
4399;DHT22;2213;49.720;7.296;2024-01-07T06:20:24;3.20;99.90
4399;DHT22;2213;49.720;7.296;2024-01-07T06:22:53;3.20;99.90
4399;DHT22;2213;49.720;7.296;2024-01-07T06:25:23;3.20;99.90
4399;DHT22;2213;49.720;7.296;2024-01-07T06:27:53;3.10;99.90
4399;DHT22;2213;49.720;7.296;2024-01-07T06:30:21;3.10;99.90
4399;DHT22;2213;49.720;7.296;2024-01-07T06:32:50;3.10;99.90
4399;DHT22;2213;49.720;7.296;2024-01-07T06:35:20;3.20;99.90
4399;DHT22;2213;49.720;7.296;2024-01-07T06:37:49;3.10;99.90
4399;DHT22;2213;49.720;7.296;2024-01-07T06:40:18;3.10;99.90
4399;DHT22;2213;49.720;7.296;2024-01-07T06:42:48;3.10;99.90
4399;DHT22;2213;49.720;7.296;2024-01-07T06:45:17;3.10;99.90
4399;DHT22;2213;49.720;7.296;2024-01-07T06:47:45;3.10;99.90
4399;DHT22;2213;49.720;7.296;2024-01-07T06:50:14;3.00;99.90
4399;DHT22;2213;49.720;7.296;2024-01-07T06:52:43;3.10;99.90
4399;DHT22;2213;49.720;7.296;2024-01-07T06:55:11;3.10;99.90
4399;DHT22;2213;49.720;7.296;2024-01-07T06:57:40;3.10;99.90
4399;DHT22;2213;49.720;7.296;2024-01-07T07:00:11;3.00;99.90
4399;DHT22;2213;49.720;7.296;2024-01-07T07:02:40;3.10;99.90
4399;DHT22;2213;49.720;7.296;2024-01-07T07:05:09;3.10;99.90
4399;DHT22;2213;49.720;7.296;2024-01-07T07:07:38;3.10;99.90
4399;DHT22;2213;49.720;7.296;2024-01-07T07:10:07;3.10;99.90
4399;DHT22;2213;49.720;7.296;2024-01-07T07:12:36;3.00;99.90
4399;DHT22;2213;49.720;7.296;2024-01-07T07:15:05;3.00;99.90
4399;DHT22;2213;49.720;7.296;2024-01-07T07:17:38;3.10;99.90
4399;DHT22;2213;49.720;7.296;2024-01-07T07:20:08;3.00;99.90
4399;DHT22;2213;49.720;7.296;2024-01-07T07:22:37;3.10;99.90
4399;DHT22;2213;49.720;7.296;2024-01-07T07:25:07;3.10;99.90
4399;DHT22;2213;49.720;7.296;2024-01-07T07:27:36;3.10;99.90
4399;DHT22;2213;49.720;7.296;2024-01-07T07:30:06;3.00;99.90
4399;DHT22;2213;49.720;7.296;2024-01-07T07:32:35;2.90;99.90
4399;DHT22;2213;49.720;7.296;2024-01-07T07:35:05;3.00;99.90
4399;DHT22;2213;49.720;7.296;2024-01-07T07:37:35;3.00;99.90
4399;DHT22;2213;49.720;7.296;2024-01-07T07:40:06;2.90;99.90
4399;DHT22;2213;49.720;7.296;2024-01-07T07:42:35;3.00;99.90
4399;DHT22;2213;49.720;7.296;2024-01-07T07:45:04;2.90;99.90
4399;DHT22;2213;49.720;7.296;2024-01-07T07:47:34;2.90;99.90
4399;DHT22;2213;49.720;7.296;2024-01-07T07:50:03;2.90;99.90
4399;DHT22;2213;49.720;7.296;2024-01-07T07:52:34;3.10;99.90
4399;DHT22;2213;49.720;7.296;2024-01-07T07:55:02;2.90;99.90
4399;DHT22;2213;49.720;7.296;2024-01-07T07:57:34;3.10;99.90
4399;DHT22;2213;49.720;7.296;2024-01-07T08:00:03;3.00;99.90
4399;DHT22;2213;49.720;7.296;2024-01-07T08:02:32;2.90;99.90
4399;DHT22;2213;49.720;7.296;2024-01-07T08:05:01;3.00;99.90
4399;DHT22;2213;49.720;7.296;2024-01-07T08:07:32;3.00;99.90
4399;DHT22;2213;49.720;7.296;2024-01-07T08:10:03;3.00;99.90
4399;DHT22;2213;49.720;7.296;2024-01-07T08:12:34;3.00;99.90
4399;DHT22;2213;49.720;7.296;2024-01-07T08:15:07;3.00;99.90
4399;DHT22;2213;49.720;7.296;2024-01-07T08:17:36;3.00;99.90
4399;DHT22;2213;49.720;7.296;2024-01-07T08:20:06;3.10;99.90
4399;DHT22;2213;49.720;7.296;2024-01-07T08:22:37;3.10;99.90
4399;DHT22;2213;49.720;7.296;2024-01-07T08:25:06;3.20;99.90
4399;DHT22;2213;49.720;7.296;2024-01-07T08:27:41;3.10;99.90
4399;DHT22;2213;49.720;7.296;2024-01-07T08:30:11;2.90;99.90
4399;DHT22;2213;49.720;7.296;2024-01-07T08:32:41;2.90;99.90
4399;DHT22;2213;49.720;7.296;2024-01-07T08:35:10;3.00;99.90
4399;DHT22;2213;49.720;7.296;2024-01-07T08:37:42;3.10;99.90
4399;DHT22;2213;49.720;7.296;2024-01-07T08:40:12;3.00;99.90
4399;DHT22;2213;49.720;7.296;2024-01-07T08:42:41;3.10;99.90
4399;DHT22;2213;49.720;7.296;2024-01-07T08:45:09;3.10;99.90
4399;DHT22;2213;49.720;7.296;2024-01-07T08:47:38;3.10;99.90
4399;DHT22;2213;49.720;7.296;2024-01-07T08:50:11;3.10;99.90
4399;DHT22;2213;49.720;7.296;2024-01-07T08:52:41;3.00;99.90
4399;DHT22;2213;49.720;7.296;2024-01-07T08:55:10;3.20;99.90
4399;DHT22;2213;49.720;7.296;2024-01-07T08:57:40;3.10;99.90
4399;DHT22;2213;49.720;7.296;2024-01-07T09:00:10;3.10;99.90
4399;DHT22;2213;49.720;7.296;2024-01-07T09:02:39;3.10;99.90
4399;DHT22;2213;49.720;7.296;2024-01-07T09:05:10;3.10;99.90
4399;DHT22;2213;49.720;7.296;2024-01-07T09:07:42;2.90;99.90
4399;DHT22;2213;49.720;7.296;2024-01-07T09:10:10;2.90;99.90
4399;DHT22;2213;49.720;7.296;2024-01-07T09:12:40;3.00;99.90
4399;DHT22;2213;49.720;7.296;2024-01-07T09:15:09;2.90;99.90
4399;DHT22;2213;49.720;7.296;2024-01-07T09:17:38;3.00;99.90
4399;DHT22;2213;49.720;7.296;2024-01-07T09:20:08;3.10;99.90
4399;DHT22;2213;49.720;7.296;2024-01-07T09:22:38;3.20;99.90
4399;DHT22;2213;49.720;7.296;2024-01-07T09:25:09;3.10;99.90
4399;DHT22;2213;49.720;7.296;2024-01-07T09:27:38;3.00;99.90
4399;DHT22;2213;49.720;7.296;2024-01-07T09:30:07;3.10;99.90
4399;DHT22;2213;49.720;7.296;2024-01-07T09:32:38;3.10;99.90
4399;DHT22;2213;49.720;7.296;2024-01-07T09:35:06;3.10;99.90
4399;DHT22;2213;49.720;7.296;2024-01-07T09:37:36;3.10;99.90
4399;DHT22;2213;49.720;7.296;2024-01-07T09:40:05;3.10;99.90
4399;DHT22;2213;49.720;7.296;2024-01-07T09:42:38;2.90;99.90
4399;DHT22;2213;49.720;7.296;2024-01-07T09:45:08;3.00;99.90
4399;DHT22;2213;49.720;7.296;2024-01-07T09:47:41;3.10;99.90
4399;DHT22;2213;49.720;7.296;2024-01-07T09:50:10;3.00;99.90
4399;DHT22;2213;49.720;7.296;2024-01-07T09:52:43;3.10;99.90
4399;DHT22;2213;49.720;7.296;2024-01-07T09:55:15;3.00;99.90
4399;DHT22;2213;49.720;7.296;2024-01-07T09:57:51;3.10;99.90
4399;DHT22;2213;49.720;7.296;2024-01-07T10:00:20;3.20;99.90
4399;DHT22;2213;49.720;7.296;2024-01-07T10:02:48;3.20;99.90
4399;DHT22;2213;49.720;7.296;2024-01-07T10:05:17;3.30;99.90
4399;DHT22;2213;49.720;7.296;2024-01-07T10:07:45;3.30;99.90
4399;DHT22;2213;49.720;7.296;2024-01-07T10:10:14;3.30;99.90
4399;DHT22;2213;49.720;7.296;2024-01-07T10:12:44;3.30;99.90
4399;DHT22;2213;49.720;7.296;2024-01-07T10:15:15;3.20;99.90
4399;DHT22;2213;49.720;7.296;2024-01-07T10:17:45;3.20;99.90
4399;DHT22;2213;49.720;7.296;2024-01-07T10:20:16;3.30;99.90
4399;DHT22;2213;49.720;7.296;2024-01-07T10:22:48;3.10;99.90
4399;DHT22;2213;49.720;7.296;2024-01-07T10:25:18;3.10;99.90
4399;DHT22;2213;49.720;7.296;2024-01-07T10:27:47;3.20;99.90
4399;DHT22;2213;49.720;7.296;2024-01-07T10:30:18;3.30;99.90
4399;DHT22;2213;49.720;7.296;2024-01-07T10:32:49;3.20;99.90
4399;DHT22;2213;49.720;7.296;2024-01-07T10:35:18;3.20;99.90
4399;DHT22;2213;49.720;7.296;2024-01-07T10:37:50;3.30;99.90
4399;DHT22;2213;49.720;7.296;2024-01-07T10:40:18;3.20;99.90
4399;DHT22;2213;49.720;7.296;2024-01-07T10:42:48;3.30;99.90
4399;DHT22;2213;49.720;7.296;2024-01-07T10:45:19;3.20;99.90
4399;DHT22;2213;49.720;7.296;2024-01-07T10:47:50;3.20;99.90
4399;DHT22;2213;49.720;7.296;2024-01-07T10:50:22;3.30;99.90
4399;DHT22;2213;49.720;7.296;2024-01-07T10:52:57;3.30;99.90
4399;DHT22;2213;49.720;7.296;2024-01-07T10:55:34;3.20;99.90
4399;DHT22;2213;49.720;7.296;2024-01-07T10:58:04;3.30;99.90
4399;DHT22;2213;49.720;7.296;2024-01-07T11:00:35;3.30;99.90
4399;DHT22;2213;49.720;7.296;2024-01-07T11:03:09;3.30;99.90
4399;DHT22;2213;49.720;7.296;2024-01-07T11:05:47;3.30;99.90
4399;DHT22;2213;49.720;7.296;2024-01-07T11:08:22;3.30;99.90
4399;DHT22;2213;49.720;7.296;2024-01-07T11:10:58;3.30;99.90
4399;DHT22;2213;49.720;7.296;2024-01-07T11:13:34;3.30;99.90
4399;DHT22;2213;49.720;7.296;2024-01-07T11:16:07;3.40;99.90
4399;DHT22;2213;49.720;7.296;2024-01-07T11:18:38;3.30;99.90
4399;DHT22;2213;49.720;7.296;2024-01-07T11:21:08;3.30;99.90
4399;DHT22;2213;49.720;7.296;2024-01-07T11:23:43;3.30;99.90
4399;DHT22;2213;49.720;7.296;2024-01-07T11:26:13;3.30;99.90
4399;DHT22;2213;49.720;7.296;2024-01-07T11:28:46;3.30;99.90
4399;DHT22;2213;49.720;7.296;2024-01-07T11:31:18;3.30;99.90
4399;DHT22;2213;49.720;7.296;2024-01-07T11:33:49;3.30;99.90
4399;DHT22;2213;49.720;7.296;2024-01-07T11:36:18;3.40;99.90
4399;DHT22;2213;49.720;7.296;2024-01-07T11:38:48;3.30;99.90
4399;DHT22;2213;49.720;7.296;2024-01-07T11:41:21;3.50;99.90
4399;DHT22;2213;49.720;7.296;2024-01-07T11:43:53;3.30;99.90
4399;DHT22;2213;49.720;7.296;2024-01-07T11:46:24;3.40;99.90
4399;DHT22;2213;49.720;7.296;2024-01-07T11:48:54;3.30;99.90
4399;DHT22;2213;49.720;7.296;2024-01-07T11:51:26;3.40;99.90
4399;DHT22;2213;49.720;7.296;2024-01-07T11:53:57;3.40;99.90
4399;DHT22;2213;49.720;7.296;2024-01-07T11:56:26;3.40;99.90
4399;DHT22;2213;49.720;7.296;2024-01-07T11:58:55;3.40;99.90
4399;DHT22;2213;49.720;7.296;2024-01-07T12:01:26;3.40;99.90
4399;DHT22;2213;49.720;7.296;2024-01-07T12:03:54;3.50;99.90
4399;DHT22;2213;49.720;7.296;2024-01-07T12:06:23;3.30;99.90
4399;DHT22;2213;49.720;7.296;2024-01-07T12:08:52;3.40;99.90
4399;DHT22;2213;49.720;7.296;2024-01-07T12:11:21;3.40;99.90
4399;DHT22;2213;49.720;7.296;2024-01-07T12:13:50;3.50;99.90
4399;DHT22;2213;49.720;7.296;2024-01-07T12:16:19;3.40;99.90
4399;DHT22;2213;49.720;7.296;2024-01-07T12:18:50;3.30;99.90
4399;DHT22;2213;49.720;7.296;2024-01-07T12:21:19;3.40;99.90
4399;DHT22;2213;49.720;7.296;2024-01-07T12:23:49;3.30;99.90
4399;DHT22;2213;49.720;7.296;2024-01-07T12:26:19;3.00;99.90
4399;DHT22;2213;49.720;7.296;2024-01-07T12:28:52;3.20;99.90
4399;DHT22;2213;49.720;7.296;2024-01-07T12:31:21;3.20;99.90
4399;DHT22;2213;49.720;7.296;2024-01-07T12:33:53;3.10;99.90
4399;DHT22;2213;49.720;7.296;2024-01-07T12:36:21;3.20;99.90
4399;DHT22;2213;49.720;7.296;2024-01-07T12:38:51;3.20;99.90
4399;DHT22;2213;49.720;7.296;2024-01-07T12:41:22;3.30;99.90
4399;DHT22;2213;49.720;7.296;2024-01-07T12:43:50;3.30;99.90
4399;DHT22;2213;49.720;7.296;2024-01-07T12:46:19;3.40;99.90
4399;DHT22;2213;49.720;7.296;2024-01-07T12:48:48;3.30;99.90
4399;DHT22;2213;49.720;7.296;2024-01-07T12:51:18;3.30;99.90
4399;DHT22;2213;49.720;7.296;2024-01-07T12:53:50;3.30;99.90
4399;DHT22;2213;49.720;7.296;2024-01-07T12:56:19;3.20;99.90
4399;DHT22;2213;49.720;7.296;2024-01-07T12:58:47;3.20;99.90
4399;DHT22;2213;49.720;7.296;2024-01-07T13:01:16;3.20;99.90
4399;DHT22;2213;49.720;7.296;2024-01-07T13:03:44;3.20;99.90
4399;DHT22;2213;49.720;7.296;2024-01-07T13:06:13;3.10;99.90
4399;DHT22;2213;49.720;7.296;2024-01-07T13:08:43;3.20;99.90
4399;DHT22;2213;49.720;7.296;2024-01-07T13:11:12;3.20;99.90
4399;DHT22;2213;49.720;7.296;2024-01-07T13:13:43;3.30;99.90
4399;DHT22;2213;49.720;7.296;2024-01-07T13:16:12;3.10;99.90
4399;DHT22;2213;49.720;7.296;2024-01-07T13:18:40;3.20;99.90
4399;DHT22;2213;49.720;7.296;2024-01-07T13:21:09;3.20;99.90
4399;DHT22;2213;49.720;7.296;2024-01-07T13:23:38;3.20;99.90
4399;DHT22;2213;49.720;7.296;2024-01-07T13:26:11;3.30;99.90
4399;DHT22;2213;49.720;7.296;2024-01-07T13:28:39;3.20;99.90
4399;DHT22;2213;49.720;7.296;2024-01-07T13:31:08;3.20;99.90
4399;DHT22;2213;49.720;7.296;2024-01-07T13:33:39;3.30;99.90
4399;DHT22;2213;49.720;7.296;2024-01-07T13:36:08;3.30;99.90
4399;DHT22;2213;49.720;7.296;2024-01-07T13:38:39;3.30;99.90
4399;DHT22;2213;49.720;7.296;2024-01-07T13:41:13;3.20;99.90
4399;DHT22;2213;49.720;7.296;2024-01-07T13:43:42;3.30;99.90
4399;DHT22;2213;49.720;7.296;2024-01-07T13:46:10;3.30;99.90
4399;DHT22;2213;49.720;7.296;2024-01-07T13:48:39;3.30;99.90
4399;DHT22;2213;49.720;7.296;2024-01-07T13:51:09;3.30;99.90
4399;DHT22;2213;49.720;7.296;2024-01-07T13:53:38;3.20;99.90
4399;DHT22;2213;49.720;7.296;2024-01-07T13:56:06;3.30;99.90
4399;DHT22;2213;49.720;7.296;2024-01-07T13:58:38;3.10;99.90
4399;DHT22;2213;49.720;7.296;2024-01-07T14:01:08;3.20;99.90
4399;DHT22;2213;49.720;7.296;2024-01-07T14:03:37;3.20;99.90
4399;DHT22;2213;49.720;7.296;2024-01-07T14:06:05;3.20;99.90
4399;DHT22;2213;49.720;7.296;2024-01-07T14:08:34;3.20;99.90
4399;DHT22;2213;49.720;7.296;2024-01-07T14:11:02;3.10;99.90
4399;DHT22;2213;49.720;7.296;2024-01-07T14:13:34;3.10;99.90
4399;DHT22;2213;49.720;7.296;2024-01-07T14:16:05;3.10;99.90
4399;DHT22;2213;49.720;7.296;2024-01-07T14:18:34;3.10;99.90
4399;DHT22;2213;49.720;7.296;2024-01-07T14:21:03;2.90;99.90
4399;DHT22;2213;49.720;7.296;2024-01-07T14:23:33;3.00;99.90
4399;DHT22;2213;49.720;7.296;2024-01-07T14:26:03;3.00;99.90
4399;DHT22;2213;49.720;7.296;2024-01-07T14:28:31;2.90;99.90
4399;DHT22;2213;49.720;7.296;2024-01-07T14:31:00;2.90;99.90
4399;DHT22;2213;49.720;7.296;2024-01-07T14:33:30;3.00;99.90
4399;DHT22;2213;49.720;7.296;2024-01-07T14:35:59;3.10;99.90
4399;DHT22;2213;49.720;7.296;2024-01-07T14:38:27;3.00;99.90
4399;DHT22;2213;49.720;7.296;2024-01-07T14:40:56;3.00;99.90
4399;DHT22;2213;49.720;7.296;2024-01-07T14:43:24;3.00;99.90
4399;DHT22;2213;49.720;7.296;2024-01-07T14:45:53;3.00;99.90
4399;DHT22;2213;49.720;7.296;2024-01-07T14:48:22;2.90;99.90
4399;DHT22;2213;49.720;7.296;2024-01-07T14:50:52;3.00;99.90
4399;DHT22;2213;49.720;7.296;2024-01-07T14:53:20;2.90;99.90
4399;DHT22;2213;49.720;7.296;2024-01-07T14:55:48;3.00;99.90
4399;DHT22;2213;49.720;7.296;2024-01-07T14:58:17;3.00;99.90
4399;DHT22;2213;49.720;7.296;2024-01-07T15:00:48;2.90;99.90
4399;DHT22;2213;49.720;7.296;2024-01-07T15:03:17;2.90;99.90
4399;DHT22;2213;49.720;7.296;2024-01-07T15:05:46;2.90;99.90
4399;DHT22;2213;49.720;7.296;2024-01-07T15:08:16;2.80;99.90
4399;DHT22;2213;49.720;7.296;2024-01-07T15:10:45;2.90;99.90
4399;DHT22;2213;49.720;7.296;2024-01-07T15:13:14;2.90;99.90
4399;DHT22;2213;49.720;7.296;2024-01-07T15:15:46;2.90;99.90
4399;DHT22;2213;49.720;7.296;2024-01-07T15:18:15;2.80;99.90
4399;DHT22;2213;49.720;7.296;2024-01-07T15:20:44;2.90;99.90
4399;DHT22;2213;49.720;7.296;2024-01-07T15:23:13;2.90;99.90
4399;DHT22;2213;49.720;7.296;2024-01-07T15:25:43;2.90;99.90
4399;DHT22;2213;49.720;7.296;2024-01-07T15:28:12;2.80;99.90
4399;DHT22;2213;49.720;7.296;2024-01-07T15:30:41;2.90;99.90
4399;DHT22;2213;49.720;7.296;2024-01-07T15:33:09;2.80;99.90
4399;DHT22;2213;49.720;7.296;2024-01-07T15:35:38;2.80;99.90
4399;DHT22;2213;49.720;7.296;2024-01-07T15:38:07;2.60;99.90
4399;DHT22;2213;49.720;7.296;2024-01-07T15:40:35;2.60;99.90
4399;DHT22;2213;49.720;7.296;2024-01-07T15:43:05;2.70;99.90
4399;DHT22;2213;49.720;7.296;2024-01-07T15:45:34;2.60;99.90
4399;DHT22;2213;49.720;7.296;2024-01-07T15:48:03;2.60;99.90
4399;DHT22;2213;49.720;7.296;2024-01-07T15:50:32;2.60;99.90
4399;DHT22;2213;49.720;7.296;2024-01-07T15:53:00;2.60;99.90
4399;DHT22;2213;49.720;7.296;2024-01-07T15:55:34;2.70;99.90
4399;DHT22;2213;49.720;7.296;2024-01-07T15:58:04;2.60;99.90
4399;DHT22;2213;49.720;7.296;2024-01-07T16:00:32;2.50;99.90
4399;DHT22;2213;49.720;7.296;2024-01-07T16:03:01;2.40;99.90
4399;DHT22;2213;49.720;7.296;2024-01-07T16:05:30;2.40;99.90
4399;DHT22;2213;49.720;7.296;2024-01-07T16:08:01;2.40;99.90
4399;DHT22;2213;49.720;7.296;2024-01-07T16:10:29;2.50;99.90
4399;DHT22;2213;49.720;7.296;2024-01-07T16:12:58;2.40;99.90
4399;DHT22;2213;49.720;7.296;2024-01-07T16:15:28;2.40;99.90
4399;DHT22;2213;49.720;7.296;2024-01-07T16:17:57;2.40;99.90
4399;DHT22;2213;49.720;7.296;2024-01-07T16:20:25;2.40;99.90
4399;DHT22;2213;49.720;7.296;2024-01-07T16:22:54;2.40;99.90
4399;DHT22;2213;49.720;7.296;2024-01-07T16:25:22;2.40;99.90
4399;DHT22;2213;49.720;7.296;2024-01-07T16:27:51;2.40;99.90
4399;DHT22;2213;49.720;7.296;2024-01-07T16:30:20;2.30;99.90